createdAt,value
2018-12-06T00:02:38.019Z,7.60
2018-12-06T00:05:08.173Z,6.60
2018-12-06T00:07:38.149Z,6.33
2018-12-06T00:10:08.503Z,7.47
2018-12-06T00:12:37.725Z,6.50
2018-12-06T00:15:26.575Z,7.13
2018-12-06T00:17:55.851Z,7.47
2018-12-06T00:20:26.215Z,7.63
2018-12-06T00:22:55.461Z,7.13
2018-12-06T00:25:24.867Z,7.77
2018-12-06T00:28:03.715Z,6.77
2018-12-06T00:34:37.261Z,7.00
2018-12-06T00:37:32.677Z,6.80
2018-12-06T00:40:07.904Z,7.93
2018-12-06T00:42:37.255Z,8.10
2018-12-06T00:45:06.929Z,6.83
2018-12-06T00:47:37.785Z,8.20
2018-12-06T00:50:12.919Z,7.87
2018-12-06T00:52:46.115Z,7.60
2018-12-06T00:55:15.953Z,7.53
2018-12-06T00:57:45.171Z,7.37
2018-12-06T01:00:15.353Z,7.37
2018-12-06T01:02:48.547Z,8.37
2018-12-06T01:05:17.813Z,6.60
2018-12-06T01:22:15.416Z,7.67
2018-12-06T01:30:14.032Z,6.80
2018-12-06T01:36:02.825Z,8.20
2018-12-06T01:38:44.173Z,6.80
2018-12-06T02:09:19.962Z,7.42
2018-12-06T02:25:51.489Z,8.78
2018-12-06T02:37:20.057Z,7.40
2018-12-06T02:39:54.572Z,8.20
2018-12-06T02:42:24.097Z,7.23
2018-12-06T02:44:54.048Z,8.47
2018-12-06T02:47:23.315Z,9.17
2018-12-06T03:03:27.106Z,8.35
2018-12-06T03:08:42.639Z,8.78
2018-12-06T03:11:11.737Z,8.73
2018-12-06T03:13:41.482Z,9.40
2018-12-06T03:16:28.353Z,7.93
2018-12-06T03:19:01.081Z,9.23
2018-12-06T03:27:13.411Z,8.80
2018-12-06T03:30:02.771Z,8.67
2018-12-06T03:32:33.570Z,9.17
2018-12-06T03:35:03.495Z,8.50
2018-12-06T03:38:02.377Z,9.43
2018-12-06T03:41:02.981Z,10.23
2018-12-06T03:43:35.713Z,9.53
2018-12-06T03:46:05.671Z,9.53
2018-12-06T03:52:07.270Z,8.50
2018-12-06T03:54:39.817Z,10.13
2018-12-06T03:57:10.343Z,9.13
2018-12-06T04:00:06.986Z,10.43
2018-12-06T04:02:38.589Z,9.77
2018-12-06T04:05:08.071Z,10.30
2018-12-06T04:07:38.656Z,9.93
2018-12-06T04:10:12.277Z,9.90
2018-12-06T04:13:10.932Z,10.70
2018-12-06T04:15:40.730Z,9.30
2018-12-06T04:18:10.130Z,11.40
2018-12-06T04:20:40.475Z,10.60
2018-12-06T04:23:11.474Z,9.90
2018-12-06T04:28:33.980Z,11.20
2018-12-06T04:31:07.060Z,9.97
2018-12-06T04:33:36.605Z,10.30
2018-12-06T04:36:11.180Z,10.80
2018-12-06T04:38:40.907Z,10.27
2018-12-06T04:41:10.004Z,11.23
2018-12-06T04:43:42.885Z,10.43
2018-12-06T04:46:12.203Z,10.50
2018-12-06T04:48:45.436Z,10.43
2018-12-06T04:54:38.235Z,12.30
2018-12-06T04:57:16.128Z,11.50
2018-12-06T04:59:45.888Z,11.93
2018-12-06T05:02:20.699Z,11.20
2018-12-06T05:11:25.071Z,10.83
2018-12-06T05:13:55.097Z,11.40
2018-12-06T05:16:48.430Z,11.50
2018-12-06T05:19:17.491Z,11.30
2018-12-06T05:21:54.849Z,12.37
2018-12-06T05:24:24.291Z,10.80
2018-12-06T05:29:53.437Z,12.20
2018-12-06T05:32:22.867Z,14.00
2018-12-06T05:34:53.046Z,12.93
2018-12-06T05:37:23.707Z,13.07
2018-12-06T05:43:23.763Z,12.58
2018-12-06T05:45:54.373Z,11.70
2018-12-06T05:48:25.465Z,12.53
2018-12-06T05:50:55.605Z,12.93
2018-12-06T05:53:25.944Z,14.70
2018-12-06T05:56:00.467Z,13.63
2018-12-06T05:58:29.785Z,12.30
2018-12-06T06:00:59.091Z,13.90
2018-12-06T06:03:28.698Z,14.30
2018-12-06T06:05:59.888Z,13.20
2018-12-06T06:08:58.151Z,14.93
2018-12-06T06:11:33.594Z,12.90
2018-12-06T06:14:03.093Z,13.20
2018-12-06T06:16:32.349Z,13.87
2018-12-06T06:19:03.055Z,11.57
2018-12-06T06:21:32.526Z,13.40
2018-12-06T06:24:07.849Z,14.00
2018-12-06T06:26:37.083Z,13.63
2018-12-06T06:29:31.568Z,13.90
2018-12-06T06:35:03.894Z,13.33
2018-12-06T06:37:38.064Z,14.90
2018-12-06T06:40:07.946Z,15.47
2018-12-06T06:59:11.439Z,14.23
2018-12-06T07:02:07.786Z,14.97
2018-12-06T07:07:32.876Z,15.13
2018-12-06T07:12:47.706Z,15.20
2018-12-06T07:18:20.729Z,15.20
2018-12-06T07:20:52.227Z,15.13
2018-12-06T07:23:23.831Z,15.47
2018-12-06T07:25:56.360Z,16.27
2018-12-06T07:28:44.365Z,17.50
2018-12-06T07:31:14.573Z,18.30
2018-12-06T08:09:43.897Z,22.02
2018-12-06T08:12:14.687Z,23.50
2018-12-06T08:14:43.843Z,26.47
2018-12-06T08:17:12.963Z,24.90
2018-12-06T08:19:42.004Z,24.37
2018-12-06T08:22:12.561Z,25.03
2018-12-06T08:24:44.297Z,25.57
2018-12-06T08:30:57.202Z,23.80
2018-12-06T08:33:27.627Z,27.00
2018-12-06T08:36:02.200Z,23.57
2018-12-06T08:38:51.048Z,24.90
2018-12-06T08:41:24.698Z,24.30
2018-12-06T08:43:54.056Z,27.60
2018-12-06T08:46:23.154Z,27.00
2018-12-06T08:48:53.395Z,25.67
2018-12-06T08:51:22.671Z,24.63
2018-12-06T08:53:53.875Z,25.67
2018-12-06T08:56:24.572Z,25.67
2018-12-06T08:58:54.911Z,25.87
2018-12-06T09:01:24.386Z,27.87
2018-12-06T09:05:07.072Z,26.80
2018-12-06T09:07:39.192Z,26.60
2018-12-06T09:10:10.942Z,26.70
2018-12-06T09:12:56.865Z,27.87
2018-12-06T09:18:31.389Z,26.37
2018-12-06T09:21:01.285Z,27.90
2018-12-06T09:23:31.784Z,27.53
2018-12-06T09:26:01.124Z,30.53
2018-12-06T09:28:30.977Z,29.97
2018-12-06T09:31:01.135Z,29.20
2018-12-06T09:33:30.996Z,29.20
2018-12-06T09:36:02.976Z,30.20
2018-12-06T09:38:33.174Z,28.60
2018-12-06T09:41:02.333Z,29.10
2018-12-06T09:43:31.665Z,31.73
2018-12-06T09:46:00.891Z,33.73
2018-12-06T09:48:30.452Z,32.07
2018-12-06T09:51:00.719Z,33.13
2018-12-06T09:59:46.935Z,30.20
2018-12-06T10:02:21.998Z,31.80
2018-12-06T10:04:51.614Z,31.60
2018-12-06T10:07:21.667Z,31.60
2018-12-06T10:09:56.084Z,34.53
2018-12-06T10:12:40.374Z,31.50
2018-12-06T10:21:09.182Z,33.87
2018-12-06T10:23:45.913Z,31.83
2018-12-06T10:26:16.395Z,31.90
2018-12-06T10:28:45.640Z,29.30
2018-12-06T10:31:16.733Z,31.63
2018-12-06T10:33:45.936Z,32.37
2018-12-06T10:36:15.119Z,30.67
2018-12-06T10:38:44.674Z,32.80
2018-12-06T10:44:29.902Z,33.33
2018-12-06T10:47:00.390Z,34.93
2018-12-06T10:49:29.688Z,34.47
2018-12-06T10:51:58.865Z,32.57
2018-12-06T10:54:28.032Z,32.73
2018-12-06T10:56:58.857Z,31.57
2018-12-06T10:59:28.559Z,35.00
2018-12-06T11:02:03.977Z,35.50
2018-12-06T11:04:35.499Z,32.27
2018-12-06T11:07:06.819Z,33.93
2018-12-06T11:09:35.974Z,35.90
2018-12-06T11:12:05.249Z,35.40
2018-12-06T11:15:22.413Z,34.00
2018-12-06T11:17:51.713Z,32.53
2018-12-06T11:20:20.927Z,33.00
2018-12-06T11:22:54.220Z,35.33
2018-12-06T11:25:23.509Z,35.57
2018-12-06T11:27:52.602Z,36.40
2018-12-06T11:30:21.765Z,34.50
2018-12-06T11:32:51.815Z,34.70
2018-12-06T11:35:23.194Z,36.00
2018-12-06T11:37:55.173Z,35.47
2018-12-06T11:40:26.208Z,32.90
2018-12-06T11:43:00.183Z,32.17
2018-12-06T11:45:29.476Z,33.80
2018-12-06T11:47:59.624Z,32.17
2018-12-06T12:06:20.407Z,29.60
2018-12-06T12:08:50.348Z,28.90
2018-12-06T12:11:19.885Z,28.10
2018-12-06T12:13:57.344Z,31.47
2018-12-06T12:16:34.770Z,30.03
2018-12-06T12:19:04.192Z,31.50
2018-12-06T12:21:33.425Z,30.40
2018-12-06T12:24:02.606Z,32.77
2018-12-06T12:26:32.413Z,31.97
2018-12-06T12:29:02.060Z,29.53
2018-12-06T12:31:31.487Z,30.20
2018-12-06T12:34:00.798Z,33.17
2018-12-06T12:39:54.342Z,33.25
2018-12-06T12:43:29.775Z,35.03
2018-12-06T12:47:56.648Z,32.27
2018-12-06T12:50:25.778Z,31.63
2018-12-06T12:52:55.562Z,35.97
2018-12-06T12:55:34.284Z,36.97
2018-12-06T12:58:04.696Z,33.93
2018-12-06T13:00:34.284Z,33.23
2018-12-06T13:03:04.688Z,32.23
2018-12-06T13:05:34.121Z,34.53
2018-12-06T13:08:03.388Z,35.43
2018-12-06T13:10:32.476Z,31.47
2018-12-06T13:13:02.533Z,32.87
2018-12-06T13:15:34.329Z,32.83
2018-12-06T13:20:53.466Z,35.67
2018-12-06T13:23:22.943Z,32.90
2018-12-06T13:25:52.452Z,34.60
2018-12-06T13:28:21.628Z,36.70
2018-12-06T13:30:50.998Z,37.37
2018-12-06T13:33:20.442Z,37.87
2018-12-06T13:38:53.588Z,39.87
2018-12-06T13:41:24.812Z,38.20
2018-12-06T13:45:02.676Z,38.30
2018-12-06T13:47:45.695Z,34.07
2018-12-06T13:50:15.166Z,37.93
2018-12-06T13:52:45.662Z,36.13
2018-12-06T13:55:15.430Z,36.80
2018-12-06T13:57:46.376Z,35.73
2018-12-06T14:00:16.609Z,36.77
2018-12-06T14:02:47.489Z,35.40
2018-12-06T14:05:17.269Z,35.73
2018-12-06T14:10:51.760Z,34.03
2018-12-06T14:13:33.590Z,39.63
2018-12-06T14:17:53.877Z,35.87
2018-12-06T14:29:34.139Z,32.60
2018-12-06T14:32:04.503Z,34.70
2018-12-06T14:37:35.333Z,30.37
2018-12-06T14:40:07.044Z,36.60
2018-12-06T14:42:49.717Z,34.93
2018-12-06T14:45:26.261Z,38.50
2018-12-06T14:47:55.679Z,35.93
2018-12-06T14:50:26.549Z,38.00
2018-12-06T14:52:56.195Z,34.77
2018-12-06T14:55:26.511Z,37.80
2018-12-06T14:57:56.545Z,38.33
2018-12-06T15:00:52.805Z,38.10
2018-12-06T15:03:26.526Z,38.73
2018-12-06T15:05:56.223Z,39.60
2018-12-06T15:08:25.895Z,37.80
2018-12-06T15:10:55.152Z,41.00
2018-12-06T15:13:25.950Z,38.70
2018-12-06T15:18:55.340Z,37.23
2018-12-06T15:22:13.570Z,40.37
2018-12-06T15:24:43.145Z,39.93
2018-12-06T15:30:11.821Z,39.17
2018-12-06T15:32:41.071Z,36.10
2018-12-06T15:48:53.988Z,32.73
2018-12-06T15:59:03.298Z,33.02
2018-12-06T16:01:43.125Z,32.37
2018-12-06T16:13:46.177Z,31.40
2018-12-06T17:07:06.867Z,28.10
2018-12-06T17:09:42.428Z,32.03
2018-12-06T17:15:56.600Z,30.80
2018-12-06T17:18:26.097Z,27.40
2018-12-06T17:20:55.985Z,30.43
2018-12-06T17:24:30.953Z,31.87
2018-12-06T17:27:45.704Z,27.80
2018-12-06T17:30:17.954Z,29.20
2018-12-06T17:32:48.217Z,29.07
2018-12-06T17:35:18.329Z,30.47
2018-12-06T17:38:00.288Z,29.50
2018-12-06T17:43:47.721Z,28.27
2018-12-06T17:49:13.960Z,28.10
2018-12-06T17:52:10.102Z,26.53
2018-12-06T18:00:42.633Z,28.10
2018-12-06T18:03:12.275Z,30.00
2018-12-06T18:05:44.569Z,30.57
2018-12-06T18:08:14.064Z,31.30
2018-12-06T18:10:44.317Z,31.00
2018-12-06T18:19:36.827Z,29.70
2018-12-06T18:22:24.762Z,32.80
2018-12-06T18:24:56.950Z,32.60
2018-12-06T18:27:26.544Z,32.20
2018-12-06T18:29:56.780Z,32.20
2018-12-06T18:32:27.366Z,32.60
2018-12-06T18:35:24.500Z,31.97
2018-12-06T18:44:59.896Z,31.97
2018-12-06T18:48:32.738Z,29.10
2018-12-06T18:51:09.090Z,32.70
2018-12-06T18:59:13.032Z,34.47
2018-12-06T19:01:59.126Z,36.37
2018-12-06T19:46:31.966Z,39.43
2018-12-06T21:59:54.463Z,32.80
2018-12-06T22:37:15.153Z,35.53
2018-12-06T23:12:58.479Z,35.40
2018-12-06T23:15:30.936Z,36.10
2018-12-06T23:18:23.704Z,35.00
